createdAt,value
2022-11-20T00:00:16.775Z,9.73
2022-11-20T00:03:21.866Z,9.88
2022-11-20T00:06:26.096Z,9.78
2022-11-20T00:09:29.978Z,9.46
2022-11-20T00:12:33.840Z,9.72
2022-11-20T00:15:40.358Z,9.40
2022-11-20T00:18:45.043Z,9.37
2022-11-20T00:21:56.818Z,9.61
2022-11-20T00:25:01.805Z,9.27
2022-11-20T00:28:05.822Z,9.24
2022-11-20T00:31:09.724Z,9.17
2022-11-20T00:34:13.626Z,8.74
2022-11-20T00:37:17.876Z,8.84
2022-11-20T00:40:22.056Z,8.91
2022-11-20T00:43:25.872Z,9.08
2022-11-20T00:46:29.642Z,9.16
2022-11-20T00:49:33.795Z,9.29
2022-11-20T00:52:37.986Z,9.01
2022-11-20T00:55:43.399Z,9.26
2022-11-20T00:58:47.834Z,9.34
2022-11-20T01:01:53.051Z,9.45
2022-11-20T01:04:59.664Z,9.27
2022-11-20T01:08:03.454Z,9.16
2022-11-20T01:11:07.450Z,9.16
2022-11-20T01:14:11.485Z,9.21
2022-11-20T01:17:15.313Z,9.17
2022-11-20T01:20:19.102Z,9.00
2022-11-20T01:23:23.368Z,8.89
2022-11-20T01:26:27.123Z,9.33
2022-11-20T01:29:31.106Z,9.44
2022-11-20T01:32:34.867Z,9.56
2022-11-20T01:35:38.979Z,9.53
2022-11-20T01:38:43.115Z,9.80
2022-11-20T01:41:47.361Z,9.71
2022-11-20T01:44:51.502Z,9.91
2022-11-20T01:47:56.184Z,9.58
2022-11-20T01:51:00.150Z,9.74
2022-11-20T01:54:04.320Z,9.50
2022-11-20T01:57:08.416Z,9.67
2022-11-20T02:00:12.093Z,9.91
2022-11-20T02:03:16.377Z,10.02
2022-11-20T02:06:20.209Z,9.76
2022-11-20T02:09:24.513Z,9.95
2022-11-20T02:12:28.654Z,9.91
2022-11-20T02:15:32.736Z,9.96
2022-11-20T02:18:36.889Z,9.84
2022-11-20T02:21:41.055Z,10.10
2022-11-20T02:24:45.063Z,10.12
2022-11-20T02:27:48.922Z,10.23
2022-11-20T02:30:52.798Z,10.24
2022-11-20T02:33:56.611Z,10.21
2022-11-20T02:37:00.756Z,10.05
2022-11-20T02:40:04.889Z,10.05
2022-11-20T02:43:08.807Z,9.91
2022-11-20T02:46:13.119Z,10.11
2022-11-20T02:49:16.839Z,10.31
2022-11-20T02:52:20.713Z,10.13
2022-11-20T02:55:24.716Z,10.25
2022-11-20T02:58:28.774Z,10.41
2022-11-20T03:01:32.799Z,10.39
2022-11-20T03:04:37.152Z,10.14
2022-11-20T03:07:41.197Z,10.28
2022-11-20T03:10:44.988Z,10.02
2022-11-20T03:13:50.711Z,9.94
2022-11-20T03:16:54.636Z,10.32
2022-11-20T03:19:58.825Z,10.26
2022-11-20T03:23:03.005Z,10.25
2022-11-20T03:26:07.108Z,10.27
2022-11-20T03:29:10.919Z,10.12
2022-11-20T03:32:15.201Z,10.22
2022-11-20T03:35:19.362Z,10.42
2022-11-20T03:38:23.429Z,10.28
2022-11-20T03:41:27.010Z,10.46
2022-11-20T03:44:30.941Z,10.55
2022-11-20T03:47:34.985Z,10.37
2022-11-20T03:50:40.029Z,10.01
2022-11-20T03:53:43.808Z,9.88
2022-11-20T03:56:47.542Z,9.92
2022-11-20T03:59:51.491Z,10.08
2022-11-20T04:02:55.388Z,10.00
2022-11-20T04:05:59.919Z,10.33
2022-11-20T04:09:03.407Z,10.33
2022-11-20T04:12:07.172Z,10.28
2022-11-20T04:15:11.248Z,10.43
2022-11-20T04:18:15.454Z,10.58
2022-11-20T04:21:19.892Z,10.60
2022-11-20T04:24:24.064Z,9.96
2022-11-20T04:27:28.288Z,9.95
2022-11-20T04:30:32.602Z,9.50
2022-11-20T04:33:36.545Z,9.46
2022-11-20T04:36:40.594Z,9.67
2022-11-20T04:39:44.899Z,9.75
2022-11-20T04:42:49.114Z,10.14
2022-11-20T04:45:53.438Z,9.82
2022-11-20T04:48:57.722Z,10.04
2022-11-20T04:52:02.003Z,9.99
2022-11-20T04:55:06.208Z,10.18
2022-11-20T04:58:10.545Z,10.20
2022-11-20T05:01:15.097Z,10.36
2022-11-20T05:04:19.205Z,10.36
2022-11-20T05:07:23.355Z,10.30
2022-11-20T05:10:27.584Z,10.30
2022-11-20T05:13:31.625Z,10.15
2022-11-20T05:16:35.650Z,9.95
2022-11-20T05:19:39.491Z,10.17
2022-11-20T05:22:43.651Z,10.19
2022-11-20T05:25:47.748Z,10.25
2022-11-20T05:28:51.756Z,10.39
2022-11-20T05:31:55.879Z,10.34
2022-11-20T05:34:59.870Z,10.57
2022-11-20T05:38:03.901Z,10.40
2022-11-20T05:41:08.205Z,10.05
2022-11-20T05:44:12.156Z,9.91
2022-11-20T05:47:16.122Z,10.14
2022-11-20T05:50:19.954Z,10.18
2022-11-20T05:53:27.457Z,10.53
2022-11-20T05:56:31.610Z,10.42
2022-11-20T05:59:35.602Z,10.24
2022-11-20T06:02:39.403Z,9.97
2022-11-20T06:05:43.202Z,10.02
2022-11-20T06:08:47.191Z,9.87
2022-11-20T06:11:51.461Z,10.10
2022-11-20T06:14:55.643Z,9.76
2022-11-20T06:17:59.644Z,9.85
2022-11-20T06:21:03.458Z,9.70
2022-11-20T06:24:07.431Z,9.68
2022-11-20T06:27:11.508Z,10.01
2022-11-20T06:30:15.387Z,10.02
2022-11-20T06:33:19.248Z,9.95
2022-11-20T06:36:23.317Z,9.81
2022-11-20T06:39:27.517Z,9.63
2022-11-20T06:42:31.755Z,9.71
2022-11-20T06:45:35.871Z,9.77
2022-11-20T06:48:39.762Z,9.58
2022-11-20T06:51:43.780Z,9.49
2022-11-20T06:54:47.629Z,9.45
2022-11-20T06:57:55.752Z,9.69
2022-11-20T07:01:01.439Z,9.88
2022-11-20T07:04:05.528Z,9.85
2022-11-20T07:07:09.367Z,9.97
2022-11-20T07:10:13.535Z,9.94
2022-11-20T07:13:17.478Z,9.97
2022-11-20T07:16:21.706Z,10.09
2022-11-20T07:19:25.811Z,9.95
2022-11-20T07:22:29.611Z,10.02
2022-11-20T07:25:34.937Z,9.93
2022-11-20T07:28:39.475Z,10.15
2022-11-20T07:31:43.148Z,10.31
2022-11-20T07:34:46.905Z,9.89
2022-11-20T07:37:51.343Z,10.18
2022-11-20T07:40:55.263Z,10.18
2022-11-20T07:43:59.331Z,10.17
2022-11-20T07:47:05.672Z,10.54
2022-11-20T07:50:09.513Z,10.66
2022-11-20T07:53:13.623Z,10.72
2022-11-20T07:56:17.308Z,10.81
2022-11-20T07:59:21.999Z,10.74
2022-11-20T08:02:26.695Z,10.64
2022-11-20T08:05:30.470Z,10.72
2022-11-20T08:08:36.906Z,10.64
2022-11-20T08:11:47.995Z,10.36
2022-11-20T08:14:53.404Z,10.64
2022-11-20T08:18:28.928Z,10.62
2022-11-20T08:24:16.970Z,10.46
2022-11-20T08:30:56.094Z,10.97
2022-11-20T08:34:24.942Z,10.78
2022-11-20T08:37:28.913Z,10.89
2022-11-20T08:40:33.082Z,11.08
2022-11-20T08:43:37.132Z,10.96
2022-11-20T08:46:41.135Z,11.23
2022-11-20T08:53:19.909Z,11.00
2022-11-20T08:56:24.380Z,11.08
2022-11-20T09:00:03.732Z,11.42
2022-11-20T09:02:59.217Z,11.34
2022-11-20T09:06:03.360Z,11.13
2022-11-20T09:09:10.680Z,11.28
2022-11-20T09:15:45.333Z,11.57
2022-11-20T09:19:28.600Z,11.23
2022-11-20T09:27:50.360Z,11.66
2022-11-20T09:30:55.491Z,11.78
2022-11-20T09:33:59.783Z,11.75
2022-11-20T09:37:07.584Z,10.99
2022-11-20T09:40:18.745Z,11.10
2022-11-20T09:43:24.990Z,11.24
2022-11-20T09:46:29.485Z,11.44
2022-11-20T09:49:33.729Z,11.05
2022-11-20T09:56:18.244Z,10.83
2022-11-20T10:02:56.387Z,11.17
2022-11-20T10:06:00.861Z,11.14
2022-11-20T10:12:16.711Z,11.37
2022-11-20T10:15:24.032Z,11.34
2022-11-20T10:18:28.562Z,11.50
2022-11-20T10:21:33.142Z,11.44
2022-11-20T10:24:37.010Z,11.81
2022-11-20T10:27:42.368Z,11.87
2022-11-20T10:30:46.457Z,11.10
2022-11-20T10:34:11.097Z,11.42
2022-11-20T10:37:14.834Z,11.74
2022-11-20T10:40:19.352Z,11.49
2022-11-20T10:46:52.168Z,11.20
2022-11-20T10:49:57.588Z,11.70
2022-11-20T10:53:02.023Z,11.66
2022-11-20T10:56:06.511Z,11.68
2022-11-20T10:59:20.732Z,11.78
2022-11-20T11:02:25.880Z,11.79
2022-11-20T11:05:40.210Z,12.00
2022-11-20T11:36:57.978Z,11.92
2022-11-20T11:40:23.516Z,12.04
2022-11-20T11:43:36.725Z,12.10
2022-11-20T11:46:42.426Z,11.94
2022-11-20T11:49:49.398Z,12.11
2022-11-20T12:06:51.602Z,12.24
2022-11-20T12:10:11.488Z,11.75
2022-11-20T12:13:22.633Z,12.09
2022-11-20T12:16:27.713Z,12.25
2022-11-20T12:19:34.613Z,11.90
2022-11-20T12:26:08.990Z,12.13
2022-11-20T12:29:15.132Z,12.11
2022-11-20T12:35:49.592Z,12.10
2022-11-20T12:42:29.177Z,11.98
2022-11-20T12:45:34.560Z,11.96
2022-11-20T12:48:45.931Z,12.37
2022-11-20T12:51:50.806Z,12.42
2022-11-20T12:54:55.061Z,12.45
2022-11-20T12:57:59.107Z,11.91
2022-11-20T13:01:04.239Z,11.94
2022-11-20T13:04:10.536Z,12.11
2022-11-20T13:07:15.902Z,12.16
2022-11-20T13:10:25.975Z,12.52
2022-11-20T13:13:30.221Z,12.65
2022-11-20T13:16:34.870Z,12.47
2022-11-20T13:19:39.440Z,12.70
2022-11-20T13:26:21.604Z,13.02
2022-11-20T13:33:06.722Z,13.18
2022-11-20T14:00:32.730Z,13.33
2022-11-20T14:04:07.110Z,13.03
2022-11-20T14:58:33.540Z,12.56
2022-11-20T15:33:51.359Z,12.62
2022-11-20T15:47:35.206Z,12.46
2022-11-20T15:55:16.254Z,12.24
2022-11-20T16:19:44.638Z,11.47
2022-11-20T16:22:49.768Z,11.55
2022-11-20T16:26:04.435Z,11.92
2022-11-20T16:33:27.474Z,11.71
2022-11-20T16:36:12.529Z,11.69
2022-11-20T16:39:24.431Z,11.77
2022-11-20T16:49:13.701Z,11.99
2022-11-20T16:52:18.336Z,11.85
2022-11-20T16:55:48.658Z,11.71
2022-11-20T16:58:56.760Z,11.80
2022-11-20T17:02:31.541Z,11.88
2022-11-20T17:05:37.947Z,11.95
2022-11-20T17:08:46.949Z,11.99
2022-11-20T17:11:54.497Z,11.57
2022-11-20T17:14:58.581Z,11.75
2022-11-20T17:18:03.699Z,11.85
2022-11-20T17:21:07.912Z,11.81
2022-11-20T17:24:13.275Z,11.95
2022-11-20T17:27:17.635Z,12.19
2022-11-20T17:30:24.226Z,12.16
2022-11-20T17:33:28.094Z,11.91
2022-11-20T17:36:31.905Z,11.76
2022-11-20T17:39:37.415Z,12.02
2022-11-20T17:42:41.423Z,12.12
2022-11-20T17:45:45.398Z,11.94
2022-11-20T17:48:49.329Z,11.68
2022-11-20T17:51:56.633Z,11.89
2022-11-20T17:55:00.621Z,12.01
2022-11-20T17:58:04.392Z,11.79
2022-11-20T18:01:10.439Z,11.73
2022-11-20T18:04:14.915Z,11.44
2022-11-20T18:07:18.785Z,11.28
2022-11-20T18:10:22.579Z,11.41
2022-11-20T18:13:27.699Z,11.35
2022-11-20T18:16:31.713Z,10.97
2022-11-20T18:19:37.618Z,11.04
2022-11-20T18:22:44.866Z,11.18
2022-11-20T18:25:48.955Z,11.02
2022-11-20T18:28:52.737Z,10.90
2022-11-20T18:31:56.712Z,11.12
2022-11-20T18:35:03.436Z,10.93
2022-11-20T18:38:07.514Z,10.76
2022-11-20T18:41:11.584Z,10.90
2022-11-20T18:44:15.484Z,10.83
2022-11-20T18:47:20.833Z,11.06
2022-11-20T18:50:24.785Z,10.95
2022-11-20T18:53:28.931Z,10.88
2022-11-20T18:56:32.624Z,11.00
2022-11-20T18:59:36.554Z,11.05
2022-11-20T19:02:43.175Z,11.13
2022-11-20T19:05:48.542Z,11.01
2022-11-20T19:08:52.780Z,10.69
2022-11-20T19:11:56.768Z,10.61
2022-11-20T19:15:00.975Z,10.99
2022-11-20T19:18:04.715Z,11.10
2022-11-20T19:21:08.699Z,11.00
2022-11-20T19:24:12.818Z,11.07
2022-11-20T19:27:16.946Z,10.35
2022-11-20T19:30:22.717Z,10.64
2022-11-20T19:33:26.999Z,10.50
2022-11-20T19:36:31.260Z,10.43
2022-11-20T19:39:35.444Z,9.89
2022-11-20T19:42:39.418Z,9.96
2022-11-20T19:48:34.294Z,9.85
2022-11-20T19:58:06.829Z,9.95
2022-11-20T20:01:11.383Z,10.09
2022-11-20T20:04:15.286Z,9.96
2022-11-20T20:07:25.312Z,9.94
2022-11-20T20:10:33.025Z,10.16
2022-11-20T20:16:54.907Z,9.93
2022-11-20T20:19:58.867Z,9.87
2022-11-20T20:23:03.013Z,9.82
2022-11-20T20:29:36.036Z,9.51
2022-11-20T20:32:40.737Z,9.54
2022-11-20T20:35:47.026Z,9.59
2022-11-20T20:38:50.999Z,9.80
2022-11-20T20:41:54.886Z,9.47
2022-11-20T20:45:01.090Z,9.76
2022-11-20T20:48:05.541Z,9.92
2022-11-20T20:51:09.915Z,9.72
2022-11-20T20:54:14.524Z,9.72
2022-11-20T20:57:23.724Z,9.54
2022-11-20T21:03:49.466Z,9.72
2022-11-20T21:06:54.185Z,9.67
2022-11-20T21:13:15.166Z,9.54
2022-11-20T21:24:55.342Z,9.62
2022-11-20T21:48:58.540Z,9.78
2022-11-20T22:01:55.129Z,10.05
2022-11-20T22:05:05.615Z,9.60
2022-11-20T22:08:09.498Z,9.79
2022-11-20T22:11:14.799Z,10.21
2022-11-20T22:39:27.584Z,9.86
2022-11-20T22:42:35.173Z,9.95
2022-11-20T22:45:40.413Z,9.81
2022-11-20T22:55:48.727Z,9.86
2022-11-20T23:05:54.195Z,10.14
2022-11-20T23:08:55.973Z,9.94
2022-11-20T23:12:00.551Z,10.22
2022-11-20T23:18:23.912Z,10.01
